Time;durP1;ratioP1;P1;durP2;ratioP2;P2;SDS_P1;SDS_P2;PMS_P1;PMS_P2;Temp;Humidity;BMP_temperature;BMP_pressure;BME280_temperature;BME280_humidity;BME280_pressure;Samples;Min_cycle;Max_cycle;Signal;HPM_P1;HPM_P2
2024/01/23 04:39:04;;;;;;;;;;;;;;;5.53;100.00;100559.00;5286307;23;19927;-78
2024/01/23 04:41:30;;;;;;;;;;;;;;;5.56;100.00;100565.09;4917594;29;19927;-78
2024/01/23 04:43:55;;;;;;;;;;;;;;;5.49;100.00;100555.53;4929267;29;19923;-80
2024/01/23 04:46:21;;;;;;;;;;;;;;;5.52;100.00;100558.16;4928860;29;19928;-79
2024/01/23 08:59:08;;;;;;;;;;;;;;;5.27;100.00;100967.47;5033342;23;19927;-79
2024/01/23 09:01:33;;;;;;;;;;;;;;;5.23;100.00;100966.59;4928382;29;19923;-81
2024/01/23 09:04:08;;;;;;;;;;;;;;;6.96;100.00;100964.78;4928067;29;20379;-84
2024/01/23 09:06:34;;;;;;;;;;;;;;;5.98;100.00;100956.69;4910952;29;20014;-89
2024/01/23 09:08:59;;;;;;;;;;;;;;;5.76;100.00;100969.03;4928330;29;20372;-79
2024/01/23 09:11:25;;;;;;;;;;;;;;;5.64;100.00;100967.34;4928992;29;19919;-86
2024/01/23 09:13:50;;;;;;;;;;;;;;;5.63;100.00;100976.09;4927094;29;19966;-87
2024/01/23 09:16:16;;;;;;;;;;;;;;;5.65;100.00;100969.09;4918792;29;19974;-89
2024/01/23 09:18:44;;;;;;;;;;;;;;;5.63;100.00;100966.47;4927932;29;19923;-85
2024/01/23 09:21:09;;;;;;;;;;;;;;;5.66;100.00;100972.59;4927873;29;19926;-89
2024/01/23 09:23:37;;;;;;;;;;;;;;;6.03;100.00;100982.97;4928440;29;19918;-86
2024/01/23 09:29:05;;;;;;;;;;;;;;;6.02;100.00;100983.88;4926319;29;19926;-78
2024/01/23 09:32:00;;;;;;;;;;;;;;;5.82;100.00;100987.41;4927750;29;19926;-88
2024/01/23 09:34:25;;;;;;;;;;;;;;;5.74;100.00;100983.94;4927654;29;20406;-84
2024/01/23 09:36:51;;;;;;;;;;;;;;;5.66;100.00;100996.25;4927805;29;19950;-82
2024/01/23 09:39:16;;;;;;;;;;;;;;;5.62;100.00;101001.53;4928248;29;20046;-83
2024/01/23 09:41:44;;;;;;;;;;;;;;;5.61;100.00;101002.41;4927962;29;19930;-86
2024/01/23 09:44:11;;;;;;;;;;;;;;;5.55;100.00;101009.44;4926324;29;19976;-81
2024/01/23 09:46:36;;;;;;;;;;;;;;;5.58;100.00;100999.78;4911078;29;19927;-87
2024/01/23 09:49:02;;;;;;;;;;;;;;;5.54;100.00;101013.81;4927389;29;20290;-80
2024/01/23 09:51:27;;;;;;;;;;;;;;;5.60;100.00;101018.19;4928162;29;19982;-82
2024/01/23 09:53:52;;;;;;;;;;;;;;;5.50;100.00;101019.97;4926745;29;20363;-78
2024/01/23 09:56:18;;;;;;;;;;;;;;;5.53;100.00;101027.84;4926236;29;20026;-81
2024/01/23 09:58:43;;;;;;;;;;;;;;;5.51;100.00;101026.13;4925946;29;19927;-79
2024/01/23 10:01:10;;;;;;;;;;;;;;;5.49;100.00;101028.75;4926447;29;19919;-82
2024/01/23 10:03:35;;;;;;;;;;;;;;;5.52;100.00;101025.22;4927420;29;19919;-85
2024/01/23 10:06:01;;;;;;;;;;;;;;;5.48;100.00;101021.72;4927621;29;19930;-78
2024/01/23 10:08:26;;;;;;;;;;;;;;;5.46;100.00;101015.59;4927413;29;19919;-84
2024/01/23 10:11:01;;;;;;;;;;;;;;;5.48;100.00;101024.34;4927010;29;19923;-82
2024/01/23 10:13:27;;;;;;;;;;;;;;;5.43;100.00;101026.13;4925967;29;20307;-81
2024/01/23 10:15:53;;;;;;;;;;;;;;;5.48;100.00;101018.22;4917574;29;19923;-80
2024/01/23 10:18:19;;;;;;;;;;;;;;;5.45;100.00;101019.97;4926835;29;19974;-80
2024/01/23 10:20:45;;;;;;;;;;;;;;;5.42;100.00;101016.47;4926930;29;19926;-84
2024/01/23 10:23:11;;;;;;;;;;;;;;;5.39;100.00;101020.00;4925957;29;19923;-80
2024/01/23 10:25:38;;;;;;;;;;;;;;;5.42;100.00;101008.59;4926736;29;20022;-80
2024/01/23 10:28:06;;;;;;;;;;;;;;;5.51;100.00;101002.44;4925950;29;19923;-78
2024/01/23 10:30:32;;;;;;;;;;;;;;;5.48;100.00;101002.47;4926008;29;19966;-85
2024/01/23 10:32:58;;;;;;;;;;;;;;;5.42;100.00;101014.72;4926833;29;19919;-81
2024/01/23 10:35:24;;;;;;;;;;;;;;;5.42;100.00;101009.44;4926989;29;19922;-82
2024/01/23 10:37:51;;;;;;;;;;;;;;;5.43;100.00;101019.09;4926185;29;20021;-81
2024/01/23 10:40:23;;;;;;;;;;;;;;;5.46;100.00;101010.34;4909322;29;19962;-83
2024/01/23 10:42:49;;;;;;;;;;;;;;;5.45;100.00;101003.31;4925350;29;19919;-85
2024/01/23 10:45:17;;;;;;;;;;;;;;;5.48;100.00;101016.47;4917165;29;20353;-83
2024/01/23 10:47:42;;;;;;;;;;;;;;;5.49;100.00;101014.69;4925655;29;19919;-81
2024/01/23 10:50:07;;;;;;;;;;;;;;;5.49;100.00;101006.81;4926485;29;20401;-80
2024/01/23 10:52:36;;;;;;;;;;;;;;;5.48;100.00;101005.94;4927057;29;19965;-85
2024/01/23 10:55:04;;;;;;;;;;;;;;;5.55;100.00;100999.81;4926242;29;19923;-80
2024/01/23 10:57:33;;;;;;;;;;;;;;;5.61;100.00;100994.50;4907899;29;19974;-84
2024/01/23 11:00:02;;;;;;;;;;;;;;;5.56;100.00;100987.53;4926138;29;20294;-84
2024/01/23 11:02:34;;;;;;;;;;;;;;;5.52;100.00;100986.69;4926672;29;19919;-86
2024/01/23 11:05:00;;;;;;;;;;;;;;;5.48;100.00;100986.69;4916685;29;19973;-80
2024/01/23 11:07:45;;;;;;;;;;;;;;;5.46;100.00;100981.44;4926060;29;20223;-85
2024/01/23 11:10:10;;;;;;;;;;;;;;;5.48;100.00;100984.91;4925570;29;19919;-86
2024/01/23 11:12:39;;;;;;;;;;;;;;;5.46;100.00;100999.81;4925270;29;19926;-87
2024/01/23 11:15:15;;;;;;;;;;;;;;;5.48;100.00;101000.69;4908638;29;19923;-79
2024/01/23 11:17:40;;;;;;;;;;;;;;;5.49;100.00;101005.09;4925788;29;19962;-83
2024/01/23 11:20:13;;;;;;;;;;;;;;;5.47;100.00;101001.56;4908930;29;20331;-86
2024/01/23 11:22:38;;;;;;;;;;;;;;;5.49;100.00;100997.19;4916044;29;20367;-80
2024/01/23 11:25:03;;;;;;;;;;;;;;;5.54;100.00;100995.41;4925996;29;19919;-85
2024/01/23 11:27:30;;;;;;;;;;;;;;;5.49;100.00;100985.78;4925044;29;20425;-83
2024/01/23 11:30:14;;;;;;;;;;;;;;;5.48;100.00;100989.31;4925011;29;19923;-84
2024/01/23 11:32:40;;;;;;;;;;;;;;;5.53;100.00;100985.78;4925954;29;19927;-80
2024/01/23 11:35:12;;;;;;;;;;;;;;;5.48;100.00;100976.16;4907226;29;19926;-86
2024/01/23 11:37:47;;;;;;;;;;;;;;;5.49;100.00;100986.69;4926314;29;19970;-79
2024/01/23 11:40:37;;;;;;;;;;;;;;;5.54;100.00;100977.03;4908114;29;19971;-80
2024/01/23 11:43:06;;;;;;;;;;;;;;;5.55;100.00;100973.53;4924283;29;19958;-87
2024/01/23 11:45:33;;;;;;;;;;;;;;;5.57;100.00;100958.59;4925728;29;19923;-83
2024/01/23 11:48:00;;;;;;;;;;;;;;;5.59;100.00;100966.50;4925381;29;19914;-84
2024/01/23 11:50:27;;;;;;;;;;;;;;;5.55;100.00;100972.63;4925452;29;19925;-86
2024/01/23 11:52:53;;;;;;;;;;;;;;;5.59;100.00;100974.38;4925580;29;20434;-88
2024/01/23 11:55:19;;;;;;;;;;;;;;;5.47;100.00;100980.53;4907872;29;20017;-87
2024/01/23 11:57:44;;;;;;;;;;;;;;;5.50;100.00;101012.06;4924503;29;19919;-88
2024/01/23 12:00:10;;;;;;;;;;;;;;;5.59;100.00;101017.31;4915697;29;19931;-87
2024/01/23 12:02:35;;;;;;;;;;;;;;;5.51;100.00;101005.94;4925512;29;20421;-85
2024/01/23 12:05:00;;;;;;;;;;;;;;;5.53;100.00;100975.25;4925794;29;19923;-82
2024/01/23 12:07:26;;;;;;;;;;;;;;;5.50;100.00;100970.00;4925513;29;19919;-82
2024/01/23 12:09:51;;;;;;;;;;;;;;;5.55;100.00;100970.00;4925152;29;19926;-86
2024/01/23 12:12:17;;;;;;;;;;;;;;;5.52;100.00;100968.28;4914379;29;20621;-87
2024/01/23 12:14:42;;;;;;;;;;;;;;;5.52;100.00;100978.78;4907958;29;19930;-80
2024/01/23 12:17:09;;;;;;;;;;;;;;;5.56;100.00;100970.00;4916290;29;19926;-85
2024/01/23 12:19:44;;;;;;;;;;;;;;;5.52;100.00;100967.38;4925259;29;20450;-82
2024/01/23 12:22:09;;;;;;;;;;;;;;;5.53;100.00;100967.38;4922870;29;19920;-82
2024/01/23 12:24:35;;;;;;;;;;;;;;;5.54;100.00;100965.63;4925991;29;20065;-87
2024/01/23 12:27:07;;;;;;;;;;;;;;;5.56;100.00;100959.47;4914217;29;20290;-86
2024/01/23 12:29:32;;;;;;;;;;;;;;;5.51;100.00;100963.00;4923755;29;20327;-79
2024/01/23 12:31:58;;;;;;;;;;;;;;;5.53;100.00;100948.97;4925255;29;19918;-84
2024/01/23 12:34:23;;;;;;;;;;;;;;;5.58;100.00;100941.06;4907947;29;20298;-83
2024/01/23 12:36:49;;;;;;;;;;;;;;;5.51;100.00;100945.47;4924972;29;19923;-80
2024/01/23 12:39:15;;;;;;;;;;;;;;;5.60;100.00;100941.91;4924753;29;19962;-84
2024/01/23 12:41:41;;;;;;;;;;;;;;;5.52;100.00;100934.09;4924132;29;19926;-84
2024/01/23 12:44:06;;;;;;;;;;;;;;;5.51;100.00;100928.84;4906205;29;20010;-85
2024/01/23 12:46:32;;;;;;;;;;;;;;;5.54;100.00;100939.34;4925565;29;20312;-89
2024/01/23 12:49:07;;;;;;;;;;;;;;;5.56;100.00;100935.81;4907204;29;19919;-86
2024/01/23 12:51:34;;;;;;;;;;;;;;;5.51;100.00;100924.44;4907536;29;19923;-83
2024/01/23 12:53:59;;;;;;;;;;;;;;;5.47;100.00;100920.06;4924590;29;20253;-88
2024/01/23 12:56:25;;;;;;;;;;;;;;;5.52;100.00;100920.06;4907391;29;20025;-82
2024/01/23 12:58:50;;;;;;;;;;;;;;;5.57;100.00;100915.66;4923815;29;19922;-82
2024/01/23 13:01:16;;;;;;;;;;;;;;;5.53;100.00;100911.28;4924973;29;19919;-84
2024/01/23 13:03:41;;;;;;;;;;;;;;;5.56;100.00;100906.88;4928189;29;19926;-79
2024/01/23 13:06:06;;;;;;;;;;;;;;;5.52;100.00;100899.91;4928258;29;20370;-88
2024/01/23 13:08:31;;;;;;;;;;;;;;;5.52;100.00;100899.91;4928619;29;19926;-79
2024/01/23 13:10:57;;;;;;;;;;;;;;;5.51;100.00;100895.53;4928544;29;19974;-89
2024/01/23 13:13:23;;;;;;;;;;;;;;;5.61;100.00;100886.69;4925964;29;19922;-88
2024/01/23 13:15:48;;;;;;;;;;;;;;;5.58;100.00;100889.34;4928184;29;20333;-79
2024/01/23 13:18:13;;;;;;;;;;;;;;;5.58;100.00;100886.72;4928557;29;19973;-85
2024/01/23 13:20:39;;;;;;;;;;;;;;;5.59;100.00;100883.22;4910693;29;19919;-85
2024/01/23 13:23:04;;;;;;;;;;;;;;;5.54;100.00;100881.50;4927826;29;19933;-86
2024/01/23 13:25:30;;;;;;;;;;;;;;;5.60;100.00;100873.56;4928001;29;20299;-82
2024/01/23 13:27:55;;;;;;;;;;;;;;;5.58;100.00;100880.59;4926718;29;19927;-82
2024/01/23 13:30:21;;;;;;;;;;;;;;;5.58;100.00;100881.44;4927952;29;19923;-84
2024/01/23 13:32:53;;;;;;;;;;;;;;;5.56;100.00;100874.47;4928199;29;19926;-87
2024/01/23 13:35:18;;;;;;;;;;;;;;;5.58;100.00;100880.59;4928361;29;20378;-84
2024/01/23 13:37:43;;;;;;;;;;;;;;;5.57;100.00;100877.09;4927772;29;19919;-84
2024/01/23 13:40:10;;;;;;;;;;;;;;;5.56;100.00;100869.22;4927704;29;19933;-83
2024/01/23 13:42:35;;;;;;;;;;;;;;;5.60;100.00;100871.81;4925588;29;19923;-85
2024/01/23 13:45:00;;;;;;;;;;;;;;;5.54;100.00;100866.59;4927809;29;19926;-84
2024/01/23 13:47:26;;;;;;;;;;;;;;;5.57;100.00;100868.34;4910791;29;19948;-84
2024/01/23 13:49:52;;;;;;;;;;;;;;;5.54;100.00;100861.34;4910390;29;20338;-85
2024/01/23 13:52:17;;;;;;;;;;;;;;;5.58;100.00;100868.31;4927455;29;19970;-81
2024/01/23 13:54:42;;;;;;;;;;;;;;;5.54;100.00;100856.06;4927657;29;20335;-82
2024/01/23 13:57:07;;;;;;;;;;;;;;;5.61;100.00;100859.53;4926575;29;19930;-86
2024/01/23 13:59:33;;;;;;;;;;;;;;;5.55;100.00;100865.72;4927230;29;19927;-83
2024/01/23 14:01:58;;;;;;;;;;;;;;;5.57;100.00;100855.19;4917805;29;19923;-88
2024/01/23 14:04:23;;;;;;;;;;;;;;;5.53;100.00;100864.84;4927219;29;19919;-80
2024/01/23 14:06:49;;;;;;;;;;;;;;;5.51;100.00;100876.25;4926251;29;19945;-85
2024/01/23 14:09:15;;;;;;;;;;;;;;;5.59;100.00;100863.94;4909970;29;19965;-83
2024/01/23 14:11:40;;;;;;;;;;;;;;;5.56;100.00;100864.81;4927536;29;19922;-83
2024/01/23 14:14:06;;;;;;;;;;;;;;;5.51;100.00;100871.88;4925143;29;20073;-87
2024/01/23 14:16:31;;;;;;;;;;;;;;;5.58;100.00;100868.31;4927721;29;20304;-88
2024/01/23 14:18:58;;;;;;;;;;;;;;;5.53;100.00;100877.97;4926919;29;19919;-85
2024/01/23 14:21:23;;;;;;;;;;;;;;;5.53;100.00;100877.97;4927275;29;19932;-83
2024/01/23 14:23:48;;;;;;;;;;;;;;;5.57;100.00;100882.34;4926849;29;20367;-86
2024/01/23 14:26:14;;;;;;;;;;;;;;;5.56;100.00;100880.59;4927137;29;19919;-89
2024/01/23 14:28:39;;;;;;;;;;;;;;;5.60;100.00;100881.44;4908819;29;19930;-85
2024/01/23 14:31:04;;;;;;;;;;;;;;;5.61;100.00;100880.56;4926923;29;19919;-88
2024/01/23 14:33:29;;;;;;;;;;;;;;;5.64;100.00;100884.06;4926586;29;19926;-86
2024/01/23 14:35:55;;;;;;;;;;;;;;;5.63;100.00;100894.56;4926826;29;19926;-84
2024/01/23 14:38:20;;;;;;;;;;;;;;;5.66;100.00;100885.81;4927231;29;19923;-77
2024/01/23 14:40:45;;;;;;;;;;;;;;;5.57;100.00;100890.25;4926780;29;19919;-84
2024/01/23 14:43:11;;;;;;;;;;;;;;;5.62;100.00;100898.13;4925095;29;20017;-84
2024/01/23 14:45:38;;;;;;;;;;;;;;;5.61;100.00;100893.72;4926504;29;19919;-90
2024/01/23 14:48:03;;;;;;;;;;;;;;;5.62;100.00;100896.34;4926937;29;19926;-90
2024/01/23 14:50:29;;;;;;;;;;;;;;;5.59;100.00;100904.25;4926858;29;20282;-91
2024/01/23 14:52:56;;;;;;;;;;;;;;;5.67;100.00;100898.09;4926745;29;19974;-90
2024/01/23 14:55:21;;;;;;;;;;;;;;;5.62;100.00;100896.34;4925601;29;19918;-87
2024/01/23 14:57:47;;;;;;;;;;;;;;;5.60;100.00;100905.09;4925078;29;19919;-87
2024/01/23 15:00:12;;;;;;;;;;;;;;;5.54;100.00;100889.38;4926231;29;19930;-91
2024/01/23 15:02:37;;;;;;;;;;;;;;;5.59;100.00;100895.50;4926724;29;20001;-90
2024/01/23 15:05:04;;;;;;;;;;;;;;;5.64;100.00;100902.47;4926146;29;19919;-91
2024/01/23 15:07:30;;;;;;;;;;;;;;;5.60;100.00;100900.75;4926029;29;19923;-84
2024/01/23 15:09:55;;;;;;;;;;;;;;;5.66;100.00;100891.06;4926111;29;19920;-84
2024/01/23 15:12:21;;;;;;;;;;;;;;;5.62;100.00;100892.84;4925203;29;20306;-77
2024/01/23 15:14:46;;;;;;;;;;;;;;;5.56;100.00;100883.22;4926339;29;20370;-84
2024/01/23 15:17:11;;;;;;;;;;;;;;;5.55;100.00;100876.25;4925019;29;19972;-82
2024/01/23 15:19:37;;;;;;;;;;;;;;;5.56;100.00;100866.59;4925706;29;19929;-86
2024/01/23 15:22:03;;;;;;;;;;;;;;;5.60;100.00;100866.56;4926432;29;19941;-81
2024/01/23 15:24:29;;;;;;;;;;;;;;;5.62;100.00;100858.66;4924782;29;19919;-83
2024/01/23 15:26:54;;;;;;;;;;;;;;;5.58;100.00;100868.31;4926166;29;20445;-82
2024/01/23 15:29:19;;;;;;;;;;;;;;;5.58;100.00;100868.31;4908079;29;20375;-90
2024/01/23 15:31:44;;;;;;;;;;;;;;;5.60;100.00;100869.19;4926190;29;20127;-81
2024/01/23 15:34:10;;;;;;;;;;;;;;;5.60;100.00;100861.31;4925841;29;19916;-85
2024/01/23 15:36:35;;;;;;;;;;;;;;;5.61;100.00;100863.03;4925425;29;19987;-82
2024/01/23 15:39:00;;;;;;;;;;;;;;;5.57;100.00;100856.06;4924858;29;19915;-86
2024/01/23 15:41:25;;;;;;;;;;;;;;;5.58;100.00;100851.66;4908161;29;20113;-84
2024/01/23 15:43:51;;;;;;;;;;;;;;;5.58;100.00;100847.28;4924397;29;19919;-84
2024/01/23 15:46:16;;;;;;;;;;;;;;;5.57;100.00;100845.53;4926074;29;19923;-79
2024/01/23 15:48:41;;;;;;;;;;;;;;;5.62;100.00;100848.16;4925585;29;19923;-81
2024/01/23 15:51:07;;;;;;;;;;;;;;;5.54;100.00;100839.44;4925606;29;20412;-85
2024/01/23 15:53:32;;;;;;;;;;;;;;;5.57;100.00;100835.03;4925272;29;19919;-84
2024/01/23 15:55:57;;;;;;;;;;;;;;;5.56;100.00;100822.75;4908370;29;19923;-86
2024/01/23 15:58:23;;;;;;;;;;;;;;;5.57;100.00;100808.72;4924160;29;19919;-80
2024/01/23 16:00:48;;;;;;;;;;;;;;;5.59;100.00;100791.19;4925519;29;19923;-81
2024/01/23 16:03:14;;;;;;;;;;;;;;;5.53;100.00;100796.47;4925631;29;20433;-85
2024/01/23 16:05:39;;;;;;;;;;;;;;;5.56;100.00;100792.97;4925721;29;20347;-86
2024/01/23 16:08:05;;;;;;;;;;;;;;;5.56;100.00;100790.34;4925313;29;20026;-82
2024/01/23 16:10:31;;;;;;;;;;;;;;;5.54;100.00;100794.75;4924053;29;20307;-83
2024/01/23 16:12:56;;;;;;;;;;;;;;;5.53;100.00;100799.09;4922992;29;19927;-81
2024/01/23 16:15:21;;;;;;;;;;;;;;;5.50;100.00;100806.16;4924079;29;19926;-81
2024/01/23 16:17:50;;;;;;;;;;;;;;;5.54;100.00;100806.13;4923942;29;19926;-82
2024/01/23 16:20:16;;;;;;;;;;;;;;;5.59;100.00;100806.97;4925563;29;19919;-84
2024/01/23 16:22:42;;;;;;;;;;;;;;;5.53;100.00;100809.63;4907758;29;19923;-86
2024/01/23 16:25:07;;;;;;;;;;;;;;;5.54;100.00;100795.59;4915697;29;19926;-81
2024/01/23 16:27:33;;;;;;;;;;;;;;;5.58;100.00;100789.44;4923844;29;19919;-83
2024/01/23 16:29:59;;;;;;;;;;;;;;;5.62;100.00;100780.66;4923611;29;19948;-79
2024/01/23 16:32:25;;;;;;;;;;;;;;;5.59;100.00;100778.03;4915367;29;19923;-82
2024/01/23 16:34:50;;;;;;;;;;;;;;;5.59;100.00;100783.28;4924225;29;19931;-78
2024/01/23 16:37:15;;;;;;;;;;;;;;;5.61;100.00;100783.28;4927699;29;19925;-80
2024/01/23 16:39:41;;;;;;;;;;;;;;;5.62;100.00;100785.91;4927702;29;20014;-81
2024/01/23 16:45:29;;;;;;;;;;;;;;;5.56;100.00;100795.59;4860085;29;20016;-88
2024/01/23 16:47:54;;;;;;;;;;;;;;;5.59;100.00;100787.69;4860049;29;20015;-83
2024/01/23 16:50:19;;;;;;;;;;;;;;;5.53;100.00;100782.47;4879801;29;19978;-88
2024/01/23 16:52:44;;;;;;;;;;;;;;;5.54;100.00;100771.94;4929455;29;19923;-84
2024/01/23 16:55:10;;;;;;;;;;;;;;;5.56;100.00;100769.31;4919281;29;19977;-86
2024/01/23 16:57:35;;;;;;;;;;;;;;;5.54;100.00;100766.69;4907798;29;19920;-80
2024/01/23 17:00:04;;;;;;;;;;;;;;;5.53;100.00;100761.44;4927198;29;19974;-86
2024/01/23 17:02:29;;;;;;;;;;;;;;;5.54;100.00;100764.06;4929022;29;19919;-89
2024/01/23 17:04:55;;;;;;;;;;;;;;;5.61;100.00;100764.88;4928620;29;20426;-81
2024/01/23 17:07:20;;;;;;;;;;;;;;;5.53;100.00;100764.06;4929360;29;20017;-88
2024/01/23 17:09:45;;;;;;;;;;;;;;;5.51;100.00;100761.44;4927627;29;19978;-80
2024/01/23 17:12:10;;;;;;;;;;;;;;;5.58;100.00;100757.00;4927401;29;19927;-80
2024/01/23 17:14:36;;;;;;;;;;;;;;;5.51;100.00;100755.31;4909605;29;20386;-85
2024/01/23 17:17:01;;;;;;;;;;;;;;;5.58;100.00;100757.88;4927805;29;19930;-79
2024/01/23 17:19:26;;;;;;;;;;;;;;;5.57;100.00;100771.06;4910612;29;20351;-81
2024/01/23 17:21:51;;;;;;;;;;;;;;;5.54;100.00;100769.31;4911207;29;19919;-83
2024/01/23 17:24:17;;;;;;;;;;;;;;;5.55;100.00;100762.28;4926767;29;20454;-88
2024/01/23 17:26:42;;;;;;;;;;;;;;;5.59;100.00;100759.63;4927154;29;20386;-83
2024/01/23 17:29:08;;;;;;;;;;;;;;;5.55;100.00;100768.44;4926925;29;19919;-84
2024/01/23 17:31:33;;;;;;;;;;;;;;;5.53;100.00;100767.56;4924555;29;19983;-79
2024/01/23 17:34:01;;;;;;;;;;;;;;;5.52;100.00;100763.19;4927980;29;20401;-80
2024/01/23 17:36:26;;;;;;;;;;;;;;;5.54;100.00;100761.44;4928038;29;20438;-86
2024/01/23 17:38:52;;;;;;;;;;;;;;;5.52;100.00;100757.06;4928709;29;19923;-88
2024/01/23 17:41:18;;;;;;;;;;;;;;;5.55;100.00;100765.81;4909548;29;20284;-86
2024/01/23 17:43:43;;;;;;;;;;;;;;;5.57;100.00;100748.25;4926416;29;19930;-81
2024/01/23 17:46:08;;;;;;;;;;;;;;;5.53;100.00;100733.38;4911428;29;19926;-87
2024/01/23 17:48:33;;;;;;;;;;;;;;;5.53;100.00;100738.63;4927729;29;20496;-85
2024/01/23 17:50:59;;;;;;;;;;;;;;;5.45;100.00;100746.56;4927259;29;19923;-81
2024/01/23 17:53:24;;;;;;;;;;;;;;;5.56;100.00;100736.00;4910984;29;20055;-81
2024/01/23 17:55:49;;;;;;;;;;;;;;;5.52;100.00;100708.00;4927607;29;19931;-81
2024/01/23 17:58:14;;;;;;;;;;;;;;;5.53;100.00;100675.53;4924617;29;20421;-83
2024/01/23 18:00:39;;;;;;;;;;;;;;;5.59;100.00;100670.25;4926664;29;19931;-81
2024/01/23 18:03:05;;;;;;;;;;;;;;;5.62;100.00;100691.25;4927093;29;19981;-84
2024/01/23 18:05:30;;;;;;;;;;;;;;;5.57;100.00;100686.94;4927259;29;20382;-84
2024/01/23 18:07:55;;;;;;;;;;;;;;;5.67;100.00;100674.56;4927093;29;20351;-82
2024/01/23 18:10:20;;;;;;;;;;;;;;;5.62;100.00;100675.47;4929007;29;19925;-88
2024/01/23 18:12:46;;;;;;;;;;;;;;;5.59;100.00;100685.16;4927628;29;20025;-86
2024/01/23 18:15:11;;;;;;;;;;;;;;;5.60;100.00;100703.53;4927963;29;20446;-84
2024/01/23 18:17:36;;;;;;;;;;;;;;;5.64;100.00;100720.16;4927689;29;20374;-80
2024/01/23 18:20:02;;;;;;;;;;;;;;;5.64;100.00;100721.03;4927321;29;19986;-85
2024/01/23 18:22:32;;;;;;;;;;;;;;;5.62;100.00;100693.88;4911417;29;19978;-83
2024/01/23 18:24:57;;;;;;;;;;;;;;;5.63;100.00;100695.63;4927041;29;19927;-89
2024/01/23 18:27:29;;;;;;;;;;;;;;;5.61;100.00;100705.28;4917231;29;19915;-88
2024/01/23 18:29:54;;;;;;;;;;;;;;;5.61;100.00;100713.16;4909933;29;20366;-77
2024/01/23 18:32:19;;;;;;;;;;;;;;;5.63;100.00;100700.91;4909914;29;19919;-78
2024/01/23 18:34:44;;;;;;;;;;;;;;;5.58;100.00;100688.66;4917558;29;19943;-79
2024/01/23 18:37:11;;;;;;;;;;;;;;;5.58;100.00;100689.50;4926230;29;19927;-81
2024/01/23 18:39:36;;;;;;;;;;;;;;;5.64;100.00;100672.84;4927388;29;19962;-82
2024/01/23 18:42:01;;;;;;;;;;;;;;;5.68;100.00;100673.66;4927439;29;21872;-81
2024/01/23 18:44:27;;;;;;;;;;;;;;;5.62;100.00;100693.88;4926705;29;19925;-87
2024/01/23 18:46:52;;;;;;;;;;;;;;;5.68;100.00;100694.72;4926599;29;20285;-86
2024/01/23 18:49:20;;;;;;;;;;;;;;;5.71;100.00;100699.94;4925692;29;19919;-79
2024/01/23 18:51:45;;;;;;;;;;;;;;;5.62;100.00;100691.25;4909415;29;19919;-89
2024/01/23 18:54:10;;;;;;;;;;;;;;;5.63;100.00;100668.44;4909693;29;19930;-81
2024/01/23 18:56:36;;;;;;;;;;;;;;;5.59;100.00;100659.72;4916374;29;19930;-81
2024/01/23 18:59:01;;;;;;;;;;;;;;;5.64;100.00;100652.66;4923201;29;20021;-82
2024/01/23 19:01:27;;;;;;;;;;;;;;;5.68;100.00;100645.63;4926987;29;19919;-82
2024/01/23 19:03:52;;;;;;;;;;;;;;;5.66;100.00;100643.91;4928558;29;20335;-86
2024/01/23 19:06:17;;;;;;;;;;;;;;;5.66;100.00;100654.41;4923877;29;19954;-87
2024/01/23 19:08:44;;;;;;;;;;;;;;;5.70;100.00;100667.53;4908079;29;19922;-81
2024/01/23 19:11:10;;;;;;;;;;;;;;;5.66;100.00;100673.69;4924956;29;19926;-87
2024/01/23 19:14:01;;;;;;;;;;;;;;;5.62;100.00;100666.72;4907340;29;20286;-80
2024/01/23 19:16:27;;;;;;;;;;;;;;;5.62;100.00;100657.06;4906455;29;20290;-87
2024/01/23 19:18:52;;;;;;;;;;;;;;;5.69;100.00;100654.38;4926641;29;20378;-89
2024/01/23 19:21:18;;;;;;;;;;;;;;;5.69;100.00;100650.00;4926712;29;19919;-89
2024/01/23 19:23:43;;;;;;;;;;;;;;;5.73;100.00;100658.75;4925419;29;19926;-89
2024/01/23 19:26:08;;;;;;;;;;;;;;;5.70;100.00;100646.50;4924959;29;19919;-89
2024/01/23 19:28:34;;;;;;;;;;;;;;;5.74;100.00;100668.34;4924540;29;19919;-90
2024/01/23 19:30:59;;;;;;;;;;;;;;;5.75;100.00;100660.47;4925299;29;19934;-88
2024/01/23 19:33:30;;;;;;;;;;;;;;;5.69;100.00;100663.13;4916274;29;20390;-87
2024/01/23 19:35:55;;;;;;;;;;;;;;;5.70;100.00;100671.94;4923393;29;20018;-88
2024/01/23 19:38:21;;;;;;;;;;;;;;;5.69;100.00;100680.69;4923283;29;20463;-86
2024/01/23 19:40:46;;;;;;;;;;;;;;;5.70;100.00;100666.66;4925943;29;20446;-91
2024/01/23 19:43:11;;;;;;;;;;;;;;;5.72;100.00;100670.16;4922760;29;20400;-88
2024/01/23 19:45:39;;;;;;;;;;;;;;;5.71;100.00;100678.91;4924573;29;19923;-89
2024/01/23 19:48:04;;;;;;;;;;;;;;;5.67;100.00;100670.19;4924813;29;19927;-82
2024/01/23 19:50:29;;;;;;;;;;;;;;;5.68;100.00;100668.41;4924672;29;20370;-85
2024/01/23 19:52:55;;;;;;;;;;;;;;;5.68;100.00;100657.91;4924113;29;19923;-86
2024/01/23 19:55:20;;;;;;;;;;;;;;;5.70;100.00;100641.22;4919185;29;20405;-85
2024/01/23 19:57:45;;;;;;;;;;;;;;;5.75;100.00;100622.78;4923897;29;20294;-77
2024/01/23 20:00:11;;;;;;;;;;;;;;;5.74;100.00;100626.28;4924242;29;20267;-81
2024/01/23 20:02:36;;;;;;;;;;;;;;;5.81;100.00;100618.31;4924127;29;19938;-83
2024/01/23 20:05:01;;;;;;;;;;;;;;;9.18;100.00;100608.28;4925010;29;19962;-92
2024/01/23 20:07:27;;;;;;;;;;;;;;;7.73;100.00;100621.84;4907551;29;19968;-86
2024/01/23 20:09:52;;;;;;;;;;;;;;;6.91;100.00;100630.22;4925895;29;19919;-82
2024/01/23 20:12:17;;;;;;;;;;;;;;;6.53;100.00;100628.97;4924008;29;19938;-88
2024/01/23 20:14:42;;;;;;;;;;;;;;;6.38;100.00;100634.41;4925232;29;19919;-88
2024/01/23 20:17:08;;;;;;;;;;;;;;;6.26;100.00;100620.50;4924335;29;19982;-86
2024/01/23 20:19:33;;;;;;;;;;;;;;;6.16;100.00;100609.22;4925562;29;19922;-87
2024/01/23 20:21:59;;;;;;;;;;;;;;;6.16;100.00;100616.25;4923181;29;19923;-87
2024/01/23 20:24:24;;;;;;;;;;;;;;;6.14;100.00;100604.84;4923678;29;19923;-88
2024/01/23 20:26:50;;;;;;;;;;;;;;;6.09;100.00;100606.66;4924855;29;20393;-89
2024/01/23 20:29:50;;;;;;;;;;;;;;;6.06;100.00;100597.03;4922925;29;19919;-83
2024/01/23 20:32:15;;;;;;;;;;;;;;;6.04;100.00;100583.03;4925484;29;19930;-86
2024/01/23 20:34:41;;;;;;;;;;;;;;;6.00;100.00;100582.22;4924541;29;19942;-86
2024/01/23 20:37:07;;;;;;;;;;;;;;;6.00;100.00;100582.22;4923807;29;20302;-81
2024/01/23 20:39:33;;;;;;;;;;;;;;;6.04;100.00;100588.28;4924859;29;20488;-80
2024/01/23 20:41:59;;;;;;;;;;;;;;;6.06;100.00;100588.28;4924011;29;19958;-80
2024/01/23 20:44:25;;;;;;;;;;;;;;;6.07;100.00;100576.88;4924431;29;19955;-81
2024/01/23 20:46:50;;;;;;;;;;;;;;;6.00;100.00;100576.94;4924880;29;20445;-80
2024/01/23 20:49:16;;;;;;;;;;;;;;;6.03;100.00;100573.41;4924839;29;20015;-82
2024/01/23 20:51:41;;;;;;;;;;;;;;;6.00;100.00;100553.28;4915038;29;19966;-80
2024/01/23 20:54:08;;;;;;;;;;;;;;;5.96;100.00;100548.91;4925035;29;20318;-82
2024/01/23 20:56:34;;;;;;;;;;;;;;;5.98;100.00;100541.91;4915190;29;20403;-82
2024/01/23 20:59:00;;;;;;;;;;;;;;;5.93;100.00;100543.66;4912681;29;20411;-84
2024/01/23 21:01:28;;;;;;;;;;;;;;;5.93;100.00;100538.41;4921800;29;19981;-81
2024/01/23 21:03:53;;;;;;;;;;;;;;;5.93;100.00;100548.91;4924433;29;20072;-80
2024/01/23 21:06:18;;;;;;;;;;;;;;;5.95;100.00;100546.28;4923244;29;20418;-78
2024/01/23 21:08:44;;;;;;;;;;;;;;;5.94;100.00;100540.16;4924250;29;19923;-80
2024/01/23 21:11:09;;;;;;;;;;;;;;;5.94;100.00;100552.44;4924368;29;20759;-80
2024/01/23 21:13:34;;;;;;;;;;;;;;;5.92;100.00;100562.97;4924241;29;20275;-77
2024/01/23 21:16:00;;;;;;;;;;;;;;;6.00;100.00;100571.69;4924102;29;20070;-79
2024/01/23 21:18:25;;;;;;;;;;;;;;;6.04;100.00;100584.81;4915550;29;19929;-78
2024/01/23 21:20:50;;;;;;;;;;;;;;;6.00;100.00;100576.94;4924133;29;19923;-81
2024/01/23 21:23:15;;;;;;;;;;;;;;;6.00;100.00;100570.81;4926760;29;19970;-84
2024/01/23 21:25:41;;;;;;;;;;;;;;;6.04;100.00;100572.50;4911247;29;19930;-89